Hlavní strana
METAR-TAF:

METAR-TAF

Letiště :

Rønne, Dánsko

zeměpisná šířka: 55-04N, zeměpisná délka: 014-45E, výška: 16 m

Aktuální stav počasí

Zpráva byla vytvořena před 22 minutami, v 23:50 UTC
Západoseverozápadní vítr 10 kt
Teplota 6°C
Vlhkost vzduchu 93%
Tlak 1029 hPa
Viditelnost: 0800 m
mlha

METAR: EKRN 212350Z AUTO 29010KT 0800 R11/P1500N R29/P1500N FG OVC002/// 06/05 Q1029

Čas: 01:12 (00:12 UTC)

Předpověď počasí

Zpráva byla vytvořena před 6 hodinami a 37 minutami, v 17:35 UTC
Předpověď platná od 21 v 18 UTC do 21 v 23 UTC
Západní vítr 15 kt
Viditelnost: 3000 m
Oblačno až skoro zataženo ve výšce 600 ft
kouřmo
Dočasný
od 21 v 18 UTC do 21 v 23 UTC
Viditelnost: 0500 m
Oblačno až skoro zataženo ve výšce 200 ft
mlha

TAF: EKRN 211735Z 2118/2123 26015KT 3000 BR BKN006 TEMPO 2118/2123 0500 FG BKN002

Stav a předpovědi počasí z více než 4 000 letišť (zprávy METAR a TAF).

Červené a žluté tečky na mapě představují dostupné meteorologické stanice.

Když kurzor umístíte na tečku, zobrazí se název stanice.

Pak kliknutím zobrazíte stav a předpověď počasí.

Chcete-li změnit mapu, kliknutím na zelené tlačítko se znaménkem +mapu přiblížíte, kliknutím na zelené tlačítko se znaménkem – mapu oddálíte a kliknutím na zelené šipky přejdete na sousední mapy.


METAR-TAF: